Time;durP1;ratioP1;P1;durP2;ratioP2;P2;SDS_P1;SDS_P2;PMS_P1;PMS_P2;Temp;Humidity;BMP_temperature;BMP_pressure;BME280_temperature;BME280_humidity;BME280_pressure;Samples;Min_cycle;Max_cycle;Signal;HPM_P1;HPM_P2
2023/01/19 00:01:34;;;;;;;9.25;4.72;;;3.10;99.90;;;;;;5065219;28;20048;-60
2023/01/19 00:04:01;;;;;;;5.55;3.70;;;3.00;99.90;;;;;;5063043;28;20140;-60
2023/01/19 00:06:30;;;;;;;6.40;3.97;;;3.10;99.90;;;;;;5071669;28;20438;-58
2023/01/19 00:08:57;;;;;;;5.68;3.10;;;3.10;99.90;;;;;;5080105;28;20048;-58
2023/01/19 00:11:23;;;;;;;5.80;2.65;;;3.20;99.90;;;;;;5053937;28;20278;-59
2023/01/19 00:13:50;;;;;;;5.93;2.90;;;3.10;99.90;;;;;;5063588;28;20072;-60
2023/01/19 00:16:17;;;;;;;5.60;2.53;;;3.10;99.90;;;;;;5061248;28;20463;-60
2023/01/19 00:18:44;;;;;;;4.72;2.28;;;3.10;99.90;;;;;;5057835;28;20119;-60
2023/01/19 00:21:13;;;;;;;4.22;2.00;;;3.10;99.90;;;;;;5066079;28;20076;-52
2023/01/19 00:23:42;;;;;;;6.75;2.55;;;3.10;99.90;;;;;;5069484;28;20048;-55
2023/01/19 00:26:09;;;;;;;2.38;1.90;;;3.10;99.90;;;;;;5064910;28;20062;-60
2023/01/19 00:28:36;;;;;;;3.78;1.65;;;3.10;99.90;;;;;;5070333;28;20516;-54
2023/01/19 00:31:03;;;;;;;4.07;2.22;;;2.90;99.90;;;;;;5056111;28;20131;-59
2023/01/19 00:33:29;;;;;;;3.15;2.33;;;3.00;99.90;;;;;;5084546;28;20056;-60
2023/01/19 00:35:56;;;;;;;4.47;3.00;;;2.90;99.90;;;;;;5057198;28;20078;-60
2023/01/19 00:38:23;;;;;;;4.30;3.00;;;2.90;99.90;;;;;;5066089;28;20132;-61
2023/01/19 00:40:51;;;;;;;3.40;3.10;;;2.90;99.90;;;;;;5061396;28;20081;-57
2023/01/19 00:43:17;;;;;;;2.95;2.53;;;2.80;99.90;;;;;;5071424;28;20086;-54
2023/01/19 00:45:44;;;;;;;4.50;2.90;;;2.70;99.90;;;;;;5073962;28;20806;-59
2023/01/19 00:48:11;;;;;;;3.47;2.53;;;2.70;99.90;;;;;;5054867;28;20064;-60
2023/01/19 00:50:38;;;;;;;3.60;2.95;;;2.70;99.90;;;;;;5070576;28;20091;-55
2023/01/19 00:53:05;;;;;;;3.58;2.70;;;2.60;99.90;;;;;;5054078;28;20552;-54
2023/01/19 00:55:32;;;;;;;3.55;2.60;;;2.60;99.90;;;;;;5057915;28;20068;-59
2023/01/19 00:58:01;;;;;;;3.33;2.63;;;2.60;99.90;;;;;;5070610;28;20053;-52
2023/01/19 01:00:28;;;;;;;2.78;2.50;;;2.60;99.90;;;;;;5074338;28;20132;-59
2023/01/19 01:02:55;;;;;;;3.00;2.70;;;2.60;99.90;;;;;;5069502;28;20420;-58
2023/01/19 01:05:22;;;;;;;2.58;2.38;;;2.60;99.90;;;;;;5060399;28;20088;-52
2023/01/19 01:07:49;;;;;;;2.90;2.13;;;2.60;99.90;;;;;;5065075;28;20135;-60
2023/01/19 01:10:17;;;;;;;3.22;2.47;;;2.50;99.90;;;;;;5068968;28;20075;-59
2023/01/19 01:12:44;;;;;;;4.00;2.35;;;2.50;99.90;;;;;;5068224;28;20080;-58
2023/01/19 01:15:12;;;;;;;3.65;2.72;;;2.50;99.90;;;;;;5070936;28;20045;-59
2023/01/19 01:17:45;;;;;;;4.13;3.38;;;2.50;99.90;;;;;;5069812;28;20059;-60
2023/01/19 01:20:15;;;;;;;6.72;3.17;;;2.50;99.90;;;;;;5061517;28;20102;-58
2023/01/19 01:22:44;;;;;;;4.78;3.50;;;2.50;99.90;;;;;;5063654;28;20053;-57
2023/01/19 01:25:11;;;;;;;3.95;3.13;;;2.50;99.90;;;;;;5071730;28;20048;-55
2023/01/19 01:27:38;;;;;;;4.38;3.63;;;2.50;99.90;;;;;;5061235;28;20040;-60
2023/01/19 01:30:05;;;;;;;4.70;3.95;;;2.50;99.90;;;;;;5055628;28;20455;-60
2023/01/19 01:32:34;;;;;;;4.90;4.00;;;2.50;99.90;;;;;;5055936;28;20132;-61
2023/01/19 01:35:00;;;;;;;7.00;4.45;;;2.50;99.90;;;;;;5061810;28;20122;-59
2023/01/19 01:37:27;;;;;;;6.78;4.40;;;2.50;99.90;;;;;;5078226;28;20088;-57
2023/01/19 01:39:54;;;;;;;5.68;4.70;;;2.50;99.90;;;;;;5069622;28;20076;-59
2023/01/19 01:42:24;;;;;;;6.43;5.10;;;2.50;99.90;;;;;;5071118;28;20048;-60
2023/01/19 01:44:52;;;;;;;8.15;5.53;;;2.50;99.90;;;;;;5079261;28;20077;-59
2023/01/19 01:47:27;;;;;;;7.65;5.70;;;2.50;99.90;;;;;;5073713;28;20103;-60
2023/01/19 01:49:58;;;;;;;6.65;5.72;;;2.50;99.90;;;;;;5068744;28;20083;-60
2023/01/19 01:52:25;;;;;;;9.48;6.53;;;2.60;99.90;;;;;;5068320;28;20079;-55
2023/01/19 01:54:51;;;;;;;9.05;6.30;;;2.50;99.90;;;;;;5054453;28;20156;-60
2023/01/19 01:57:18;;;;;;;9.98;6.40;;;2.50;99.90;;;;;;5069111;28;20103;-59
2023/01/19 01:59:47;;;;;;;7.78;6.45;;;2.50;99.90;;;;;;5054008;28;20090;-55
2023/01/19 02:05:05;;;;;;;11.00;7.28;;;2.50;99.90;;;;;;5059982;28;20045;-60
2023/01/19 02:13:19;;;;;;;12.52;8.20;;;2.60;99.90;;;;;;5080965;28;20042;-60
2023/01/19 02:15:47;;;;;;;11.93;8.55;;;2.60;99.90;;;;;;5077389;28;20131;-61
2023/01/19 02:18:14;;;;;;;16.83;9.63;;;2.50;99.90;;;;;;5069650;28;20558;-58
2023/01/19 02:20:43;;;;;;;13.80;9.93;;;2.50;99.90;;;;;;5061006;28;20053;-61
2023/01/19 02:23:14;;;;;;;18.23;10.43;;;2.60;99.90;;;;;;5062594;28;20056;-57
2023/01/19 02:25:42;;;;;;;17.33;11.52;;;2.60;99.90;;;;;;5058958;28;20412;-56
2023/01/19 02:28:09;;;;;;;16.50;10.25;;;2.60;99.90;;;;;;5069889;28;20044;-48
2023/01/19 02:30:36;;;;;;;17.55;11.32;;;2.60;99.90;;;;;;5062921;28;20373;-59
2023/01/19 02:33:03;;;;;;;14.77;10.82;;;2.60;99.90;;;;;;5054845;28;20061;-60
2023/01/19 02:35:30;;;;;;;16.55;11.10;;;2.60;99.90;;;;;;5057619;28;20092;-59
2023/01/19 02:37:57;;;;;;;17.00;11.32;;;2.60;99.90;;;;;;5068409;28;20139;-61
2023/01/19 02:40:24;;;;;;;18.10;10.98;;;2.70;99.90;;;;;;5079531;28;20086;-60
2023/01/19 02:42:52;;;;;;;17.40;12.10;;;2.60;99.90;;;;;;5074139;28;20059;-59
2023/01/19 02:45:20;;;;;;;17.27;11.80;;;2.60;99.90;;;;;;5063649;28;20057;-59
2023/01/19 02:47:48;;;;;;;18.83;11.77;;;2.70;99.90;;;;;;5056876;28;20123;-52
2023/01/19 02:50:36;;;;;;;21.73;12.77;;;2.70;99.90;;;;;;5073061;28;20050;-59
2023/01/19 02:53:08;;;;;;;18.75;10.77;;;2.70;99.90;;;;;;5068185;28;20087;-59
2023/01/19 02:55:35;;;;;;;19.55;12.15;;;2.70;99.90;;;;;;5054193;28;20128;-60
2023/01/19 02:58:05;;;;;;;14.65;9.02;;;2.60;99.90;;;;;;5053154;28;20577;-60
2023/01/19 03:00:35;;;;;;;18.13;11.82;;;2.70;99.90;;;;;;5060102;28;20196;-60
2023/01/19 03:03:11;;;;;;;16.45;11.10;;;2.70;99.90;;;;;;5065238;28;20053;-55
2023/01/19 03:05:48;;;;;;;15.98;10.48;;;2.70;99.90;;;;;;5071034;28;20099;-57
2023/01/19 03:08:16;;;;;;;14.18;9.43;;;2.70;99.90;;;;;;5063739;28;20044;-59
2023/01/19 03:10:47;;;;;;;11.02;7.72;;;2.70;99.90;;;;;;5055814;28;20144;-59
2023/01/19 03:13:17;;;;;;;11.18;7.95;;;2.70;99.90;;;;;;5059021;28;20098;-60
2023/01/19 03:15:46;;;;;;;13.38;8.15;;;2.70;99.90;;;;;;5064468;28;20136;-61
2023/01/19 03:18:13;;;;;;;13.13;8.32;;;2.70;99.90;;;;;;5059411;28;20467;-60
2023/01/19 03:20:40;;;;;;;9.80;7.40;;;2.70;99.90;;;;;;5068751;28;20068;-56
2023/01/19 03:23:08;;;;;;;9.95;7.28;;;2.70;99.90;;;;;;5054075;28;20072;-58
2023/01/19 03:25:37;;;;;;;9.65;6.90;;;2.60;99.90;;;;;;5056493;28;20076;-62
2023/01/19 03:28:04;;;;;;;7.88;6.43;;;2.60;99.90;;;;;;5052742;28;20107;-60
2023/01/19 03:30:35;;;;;;;9.38;7.55;;;2.60;99.90;;;;;;5060412;28;20053;-60
2023/01/19 03:33:06;;;;;;;9.30;6.67;;;2.60;99.90;;;;;;5071089;28;20056;-58
2023/01/19 03:35:34;;;;;;;10.02;7.53;;;2.60;99.90;;;;;;5052476;28;20049;-60
2023/01/19 03:38:02;;;;;;;9.70;7.25;;;2.60;99.90;;;;;;5065027;28;20091;-59
2023/01/19 03:40:30;;;;;;;17.35;9.60;;;2.60;99.90;;;;;;5051781;28;20568;-60
2023/01/19 03:42:57;;;;;;;9.27;6.55;;;2.50;99.90;;;;;;5067596;28;20521;-60
2023/01/19 03:45:23;;;;;;;6.80;5.90;;;2.50;99.90;;;;;;5067200;28;20048;-63
2023/01/19 03:47:52;;;;;;;6.65;5.35;;;2.60;99.90;;;;;;5074116;28;20549;-60
2023/01/19 03:50:23;;;;;;;5.30;4.45;;;2.50;99.90;;;;;;5067157;28;20128;-60
2023/01/19 03:53:00;;;;;;;5.85;4.80;;;2.50;99.90;;;;;;5066332;28;20496;-60
2023/01/19 03:55:27;;;;;;;7.30;5.10;;;2.50;99.90;;;;;;5052797;28;20088;-60
2023/01/19 03:57:54;;;;;;;6.05;5.07;;;2.50;99.90;;;;;;5067365;28;20140;-61
2023/01/19 04:00:21;;;;;;;6.82;5.03;;;2.40;99.90;;;;;;5064441;28;20099;-61
2023/01/19 04:02:48;;;;;;;8.88;4.78;;;2.50;99.90;;;;;;5080373;28;20085;-62
2023/01/19 04:05:16;;;;;;;7.00;5.15;;;2.50;99.90;;;;;;5065963;28;20185;-56
2023/01/19 04:07:42;;;;;;;6.57;4.53;;;2.50;99.90;;;;;;5071703;28;20173;-59
2023/01/19 04:10:11;;;;;;;5.60;4.15;;;2.50;99.90;;;;;;5073564;28;20040;-48
2023/01/19 04:12:38;;;;;;;8.10;5.40;;;2.50;99.90;;;;;;5057089;28;20072;-45
2023/01/19 04:15:07;;;;;;;8.00;5.47;;;2.50;99.90;;;;;;5058950;28;20056;-58
2023/01/19 04:17:34;;;;;;;6.00;3.85;;;2.50;99.90;;;;;;5071912;28;20171;-60
2023/01/19 04:20:00;;;;;;;5.82;4.53;;;2.50;99.90;;;;;;5064325;28;20103;-60
2023/01/19 04:22:29;;;;;;;5.88;4.65;;;2.50;99.90;;;;;;5073714;28;20089;-59
2023/01/19 04:24:56;;;;;;;5.70;4.47;;;2.50;99.90;;;;;;5075769;28;20048;-60
2023/01/19 04:27:22;;;;;;;7.55;4.60;;;2.50;99.90;;;;;;5070935;28;20052;-58
2023/01/19 04:29:49;;;;;;;8.30;4.38;;;2.60;99.90;;;;;;5078256;28;20113;-42
2023/01/19 04:32:16;;;;;;;7.38;3.75;;;2.60;99.90;;;;;;5070614;28;20041;-56
2023/01/19 04:34:43;;;;;;;5.80;3.47;;;2.50;99.90;;;;;;5062930;28;20084;-59
2023/01/19 04:37:10;;;;;;;5.03;3.13;;;2.50;99.90;;;;;;5065896;28;20503;-53
2023/01/19 04:39:38;;;;;;;9.65;4.57;;;2.60;99.90;;;;;;5058660;28;20137;-58
2023/01/19 04:42:05;;;;;;;10.07;3.75;;;2.60;99.90;;;;;;5069210;28;20050;-48
2023/01/19 04:44:32;;;;;;;9.45;4.38;;;2.60;99.90;;;;;;5058327;28;20051;-55
2023/01/19 04:46:59;;;;;;;11.95;3.22;;;2.70;99.90;;;;;;5062688;28;20088;-56
2023/01/19 04:49:25;;;;;;;5.57;2.08;;;2.70;99.90;;;;;;5058256;28;20044;-59
2023/01/19 04:51:53;;;;;;;6.90;2.97;;;2.80;99.90;;;;;;5074783;28;20084;-53
2023/01/19 04:54:20;;;;;;;5.68;2.20;;;2.80;99.90;;;;;;5054239;28;20041;-59
2023/01/19 04:56:48;;;;;;;5.80;2.30;;;2.80;99.90;;;;;;5054231;28;20216;-60
2023/01/19 04:59:15;;;;;;;6.85;2.20;;;2.80;99.90;;;;;;5058351;28;20083;-61
2023/01/19 05:01:42;;;;;;;4.10;2.58;;;2.80;99.90;;;;;;5067412;28;20094;-55
2023/01/19 05:04:09;;;;;;;6.35;2.70;;;2.80;99.90;;;;;;5062504;28;20094;-59
2023/01/19 05:06:36;;;;;;;7.43;2.45;;;2.90;99.90;;;;;;5089001;28;20488;-60
2023/01/19 05:09:03;;;;;;;10.25;3.35;;;2.90;99.90;;;;;;5064770;28;20053;-57
2023/01/19 05:11:29;;;;;;;5.78;2.92;;;2.90;99.90;;;;;;5054752;28;20053;-60
2023/01/19 05:13:57;;;;;;;8.90;3.53;;;2.90;99.90;;;;;;5060160;28;20088;-58
2023/01/19 05:16:24;;;;;;;6.85;2.92;;;2.90;99.90;;;;;;5073663;28;20052;-52
2023/01/19 05:18:51;;;;;;;7.07;3.20;;;2.90;99.90;;;;;;5074267;28;20044;-60
2023/01/19 05:21:18;;;;;;;8.40;3.13;;;2.90;99.90;;;;;;5067018;28;20441;-60
2023/01/19 05:23:45;;;;;;;9.85;3.05;;;3.00;99.90;;;;;;5061245;28;20056;-53
2023/01/19 05:26:12;;;;;;;11.75;3.45;;;3.00;99.90;;;;;;5062416;28;20492;-57
2023/01/19 05:28:39;;;;;;;12.35;3.55;;;3.00;99.90;;;;;;5073465;28;20091;-60
2023/01/19 05:31:07;;;;;;;14.02;3.25;;;3.10;99.90;;;;;;5068956;28;20044;-45
2023/01/19 05:33:34;;;;;;;9.43;2.92;;;3.10;99.90;;;;;;5082597;28;20071;-55
2023/01/19 05:36:01;;;;;;;9.25;2.80;;;3.10;99.90;;;;;;5067124;28;20119;-60
2023/01/19 05:38:28;;;;;;;8.10;2.45;;;3.10;99.90;;;;;;5053046;28;20420;-61
2023/01/19 05:40:57;;;;;;;14.07;2.15;;;3.10;99.90;;;;;;5057809;28;20052;-51
2023/01/19 05:43:24;;;;;;;11.88;1.70;;;3.10;99.90;;;;;;5071527;28;20726;-58
2023/01/19 05:45:51;;;;;;;6.55;1.52;;;3.10;99.90;;;;;;5059609;28;20060;-59
2023/01/19 05:48:19;;;;;;;10.20;1.27;;;3.20;99.90;;;;;;5067114;28;20101;-59
2023/01/19 05:50:48;;;;;;;22.90;1.63;;;3.20;99.90;;;;;;5067838;28;20063;-44
2023/01/19 05:53:15;;;;;;;11.68;1.40;;;3.20;99.90;;;;;;5066734;28;20424;-60
2023/01/19 05:55:42;;;;;;;11.02;1.25;;;3.30;99.90;;;;;;5070937;28;20486;-59
2023/01/19 05:58:08;;;;;;;15.25;1.60;;;3.30;99.90;;;;;;5072898;28;20079;-59
2023/01/19 06:00:35;;;;;;;6.32;1.00;;;3.30;99.90;;;;;;5064656;28;20043;-59
2023/01/19 06:03:02;;;;;;;12.02;1.13;;;3.30;99.90;;;;;;5068482;28;20087;-57
2023/01/19 06:05:30;;;;;;;12.23;1.05;;;3.30;99.90;;;;;;5075091;28;20093;-59
2023/01/19 06:07:57;;;;;;;11.80;1.27;;;3.30;99.90;;;;;;5060929;28;20139;-54
2023/01/19 06:10:24;;;;;;;10.48;1.52;;;3.30;99.90;;;;;;5055984;28;20396;-58
2023/01/19 06:12:51;;;;;;;10.23;1.33;;;3.30;99.90;;;;;;5054661;28;20082;-59
2023/01/19 06:15:18;;;;;;;13.80;1.10;;;3.30;99.90;;;;;;5059876;28;20098;-58
2023/01/19 06:17:45;;;;;;;11.73;1.45;;;3.30;99.90;;;;;;5070934;28;20108;-60
2023/01/19 06:20:13;;;;;;;6.13;1.23;;;3.30;99.90;;;;;;5091454;28;20442;-59
2023/01/19 06:22:41;;;;;;;3.85;0.80;;;3.20;99.90;;;;;;5052231;28;20052;-61
2023/01/19 06:25:09;;;;;;;7.65;1.95;;;3.20;99.90;;;;;;5053012;28;20446;-59
2023/01/19 06:27:36;;;;;;;7.90;1.98;;;3.20;99.90;;;;;;5064064;28;20135;-60
2023/01/19 06:30:03;;;;;;;13.23;2.00;;;3.20;99.90;;;;;;5069744;28;20102;-57
2023/01/19 06:32:30;;;;;;;6.28;1.60;;;3.20;99.90;;;;;;5072063;28;20183;-59
2023/01/19 06:34:57;;;;;;;6.57;1.00;;;3.20;99.90;;;;;;5073331;28;20051;-61
2023/01/19 06:37:26;;;;;;;4.05;0.90;;;3.10;99.90;;;;;;5078199;28;20580;-61
2023/01/19 06:39:54;;;;;;;11.60;1.17;;;3.10;99.90;;;;;;5075281;28;20403;-57
2023/01/19 06:42:21;;;;;;;9.50;1.10;;;3.10;99.90;;;;;;5073386;28;20456;-60
2023/01/19 06:44:48;;;;;;;6.78;1.13;;;3.00;99.90;;;;;;5072010;28;20110;-57
2023/01/19 06:47:14;;;;;;;6.13;1.15;;;3.00;99.90;;;;;;5068814;28;20385;-59
2023/01/19 06:49:41;;;;;;;11.27;1.48;;;3.00;99.90;;;;;;5069898;28;20447;-60
2023/01/19 06:52:09;;;;;;;10.75;1.40;;;3.00;99.90;;;;;;5072662;28;20052;-60
2023/01/19 06:54:36;;;;;;;11.63;1.23;;;3.00;99.90;;;;;;5071767;28;20056;-59
2023/01/19 06:57:04;;;;;;;11.40;2.08;;;3.00;99.90;;;;;;5072950;28;20053;-55
2023/01/19 06:59:31;;;;;;;19.95;1.70;;;3.00;99.90;;;;;;5069004;28;20076;-56
2023/01/19 07:01:58;;;;;;;13.85;1.30;;;3.00;99.90;;;;;;5072155;28;20080;-57
2023/01/19 07:04:25;;;;;;;14.32;2.45;;;3.00;99.90;;;;;;5072555;28;20075;-56
2023/01/19 07:06:52;;;;;;;14.35;1.70;;;3.10;99.90;;;;;;5071455;28;20435;-60
2023/01/19 07:09:20;;;;;;;18.63;1.58;;;3.10;99.90;;;;;;5067811;28;20078;-61
2023/01/19 07:11:47;;;;;;;12.25;1.92;;;3.10;99.90;;;;;;5056526;28;20060;-61
2023/01/19 07:14:15;;;;;;;19.73;2.55;;;3.10;99.90;;;;;;5085260;28;20143;-59
2023/01/19 07:16:42;;;;;;;23.10;2.45;;;3.20;99.90;;;;;;5071938;28;20083;-58
2023/01/19 07:19:09;;;;;;;19.50;2.10;;;3.20;99.90;;;;;;5070799;28;20139;-61
2023/01/19 07:21:36;;;;;;;24.42;2.20;;;3.20;99.90;;;;;;5058481;28;20056;-57
2023/01/19 07:24:03;;;;;;;21.17;1.83;;;3.20;99.90;;;;;;5052637;28;20136;-59
2023/01/19 07:26:30;;;;;;;15.82;2.90;;;3.20;99.90;;;;;;5052433;28;20135;-59
2023/01/19 07:28:56;;;;;;;13.85;1.65;;;3.20;99.90;;;;;;5068942;28;20484;-53
2023/01/19 07:31:25;;;;;;;19.15;2.35;;;3.20;99.90;;;;;;5072356;28;20143;-58
2023/01/19 07:33:51;;;;;;;17.48;2.45;;;3.20;99.90;;;;;;5063837;28;20136;-61
2023/01/19 07:36:18;;;;;;;17.15;2.35;;;3.20;99.90;;;;;;5056289;28;20101;-60
2023/01/19 07:38:45;;;;;;;17.83;2.15;;;3.20;99.90;;;;;;5072380;28;20131;-61
2023/01/19 07:41:12;;;;;;;15.77;2.00;;;3.20;99.90;;;;;;5076558;28;20139;-60
2023/01/19 07:43:39;;;;;;;19.13;2.05;;;3.20;99.90;;;;;;5074505;28;20127;-57
2023/01/19 07:46:06;;;;;;;20.55;1.92;;;3.20;99.90;;;;;;5075939;28;20056;-59
2023/01/19 07:48:34;;;;;;;14.75;1.88;;;3.20;99.90;;;;;;5075910;28;20528;-60
2023/01/19 07:51:04;;;;;;;20.33;2.45;;;3.10;99.90;;;;;;5074219;28;20110;-59
2023/01/19 07:53:31;;;;;;;14.70;1.98;;;3.20;99.90;;;;;;5075311;28;20049;-58
2023/01/19 07:55:57;;;;;;;27.02;2.20;;;3.20;99.90;;;;;;5076448;28;20055;-60
2023/01/19 07:58:25;;;;;;;20.40;1.90;;;3.20;99.90;;;;;;5072464;28;20072;-59
2023/01/19 08:00:52;;;;;;;26.48;2.92;;;3.20;99.90;;;;;;5074402;28;20137;-55
2023/01/19 08:03:19;;;;;;;22.08;2.15;;;3.20;99.90;;;;;;5068088;28;20485;-60
2023/01/19 08:05:49;;;;;;;16.38;2.28;;;3.20;99.90;;;;;;5054838;28;20495;-56
2023/01/19 08:08:17;;;;;;;22.83;2.83;;;3.20;99.90;;;;;;5056151;28;20107;-60
2023/01/19 08:10:44;;;;;;;24.52;3.05;;;3.20;99.90;;;;;;5055787;28;20082;-59
2023/01/19 08:13:10;;;;;;;17.50;2.28;;;3.20;99.90;;;;;;5071353;28;20048;-60
2023/01/19 08:15:37;;;;;;;16.83;2.33;;;3.20;99.90;;;;;;5075304;28;20419;-57
2023/01/19 08:18:05;;;;;;;24.92;2.83;;;3.20;99.90;;;;;;5066509;28;20052;-61
2023/01/19 08:20:32;;;;;;;20.73;2.42;;;3.10;99.90;;;;;;5076293;28;20049;-59
2023/01/19 08:23:01;;;;;;;19.98;2.55;;;3.20;99.90;;;;;;5055022;28;20091;-53
2023/01/19 08:25:32;;;;;;;19.38;2.45;;;3.10;99.90;;;;;;5055990;28;20469;-58
2023/01/19 08:27:59;;;;;;;22.10;3.42;;;3.10;99.90;;;;;;5071614;28;20092;-61
2023/01/19 08:30:26;;;;;;;26.95;3.42;;;3.10;99.90;;;;;;5066943;28;20102;-60
2023/01/19 08:32:53;;;;;;;23.77;2.65;;;3.10;99.90;;;;;;5054084;28;20045;-60
2023/01/19 08:35:21;;;;;;;18.58;2.13;;;3.10;99.90;;;;;;5070821;28;20048;-56
2023/01/19 08:37:48;;;;;;;28.40;3.25;;;3.10;99.90;;;;;;5055405;28;20083;-61
2023/01/19 08:40:17;;;;;;;16.42;2.80;;;3.10;99.90;;;;;;5057159;28;20048;-60
2023/01/19 08:42:43;;;;;;;27.98;3.95;;;3.20;99.90;;;;;;5071583;28;20110;-60
2023/01/19 08:45:11;;;;;;;18.67;2.65;;;3.20;99.90;;;;;;5073538;28;20454;-53
2023/01/19 08:47:38;;;;;;;25.48;3.00;;;3.20;99.90;;;;;;5073917;28;20076;-60
2023/01/19 08:50:05;;;;;;;16.60;2.60;;;3.20;99.90;;;;;;5074904;28;20056;-56
2023/01/19 08:52:32;;;;;;;25.50;2.78;;;3.30;99.90;;;;;;5075235;28;20102;-60
2023/01/19 08:54:59;;;;;;;19.00;2.85;;;3.20;99.90;;;;;;5070406;28;20479;-60
2023/01/19 08:57:28;;;;;;;16.65;2.42;;;3.20;99.90;;;;;;5071535;28;20090;-59
2023/01/19 08:59:55;;;;;;;24.35;2.47;;;3.30;99.90;;;;;;5054538;28;20055;-60
2023/01/19 09:02:22;;;;;;;18.88;2.65;;;3.30;99.90;;;;;;5053854;28;20106;-60
2023/01/19 09:04:49;;;;;;;28.05;2.90;;;3.20;99.90;;;;;;5074579;28;20452;-60
2023/01/19 09:07:16;;;;;;;19.27;2.20;;;3.30;99.90;;;;;;5073832;28;20056;-61
2023/01/19 09:09:43;;;;;;;22.98;2.55;;;3.30;99.90;;;;;;5056527;28;20091;-60
2023/01/19 09:12:09;;;;;;;19.02;2.80;;;3.30;99.90;;;;;;5070431;28;20059;-58
2023/01/19 09:14:38;;;;;;;24.23;2.38;;;3.30;99.90;;;;;;5068139;28;20060;-60
2023/01/19 09:17:05;;;;;;;28.75;2.90;;;3.30;99.90;;;;;;5073181;28;20048;-61
2023/01/19 09:19:32;;;;;;;20.70;3.10;;;3.30;99.90;;;;;;5074282;28;20044;-57
2023/01/19 09:21:59;;;;;;;28.35;2.80;;;3.30;99.90;;;;;;5073368;28;20052;-61
2023/01/19 09:24:26;;;;;;;13.35;2.72;;;3.20;99.90;;;;;;5059540;28;20095;-57
2023/01/19 09:26:53;;;;;;;22.30;2.80;;;3.20;99.90;;;;;;5070171;28;20067;-59
2023/01/19 09:29:20;;;;;;;22.52;2.50;;;3.20;99.90;;;;;;5074070;28;20131;-61
2023/01/19 09:31:48;;;;;;;19.67;2.20;;;3.30;99.90;;;;;;5073921;28;20469;-58
2023/01/19 09:34:15;;;;;;;18.80;3.38;;;3.20;99.90;;;;;;5071869;28;20048;-59
2023/01/19 09:36:42;;;;;;;21.13;2.53;;;3.20;99.90;;;;;;5067864;28;20053;-59
2023/01/19 09:39:09;;;;;;;19.15;2.67;;;3.20;99.90;;;;;;5054450;28;20461;-58
2023/01/19 09:41:37;;;;;;;20.95;2.50;;;3.30;99.90;;;;;;5051883;28;20558;-53
2023/01/19 09:44:04;;;;;;;15.95;2.20;;;3.30;99.90;;;;;;5054754;28;20053;-56
2023/01/19 09:46:34;;;;;;;26.35;2.42;;;3.40;99.90;;;;;;5060312;28;20048;-59
2023/01/19 09:49:03;;;;;;;19.65;2.78;;;3.60;99.90;;;;;;5073889;28;20052;-59
2023/01/19 09:51:33;;;;;;;15.85;2.30;;;3.70;99.90;;;;;;5074020;28;20102;-58
2023/01/19 09:54:04;;;;;;;19.33;2.28;;;3.70;99.90;;;;;;5073369;28;20139;-57
2023/01/19 09:56:31;;;;;;;20.20;2.63;;;3.80;99.90;;;;;;5069536;28;20113;-58
2023/01/19 09:58:59;;;;;;;17.75;2.75;;;3.80;99.90;;;;;;5073325;28;20089;-60
2023/01/19 10:01:46;;;;;;;21.75;2.78;;;3.90;99.90;;;;;;5069827;28;20139;-59
2023/01/19 10:04:31;;;;;;;15.75;1.77;;;4.10;99.90;;;;;;5072545;28;20138;-59
2023/01/19 10:07:24;;;;;;;18.15;2.38;;;4.20;99.90;;;;;;5055096;28;20088;-59
2023/01/19 10:10:03;;;;;;;16.70;2.65;;;4.30;99.90;;;;;;5056177;28;20053;-59
2023/01/19 10:12:39;;;;;;;24.83;2.85;;;4.40;99.90;;;;;;5067714;28;20075;-58
2023/01/19 10:15:12;;;;;;;13.82;2.30;;;4.40;99.90;;;;;;5071304;28;20056;-54
2023/01/19 10:17:43;;;;;;;20.40;2.38;;;4.60;99.90;;;;;;5073038;28;20098;-59
2023/01/19 10:20:13;;;;;;;19.40;2.03;;;4.70;99.90;;;;;;5071758;28;20169;-54
2023/01/19 10:22:42;;;;;;;20.50;2.50;;;4.70;99.90;;;;;;5072209;28;20102;-60
2023/01/19 10:25:13;;;;;;;16.65;3.05;;;4.80;99.90;;;;;;5070258;28;20094;-59
2023/01/19 10:27:40;;;;;;;16.52;2.67;;;4.90;99.90;;;;;;5072770;28;20088;-59
2023/01/19 10:30:09;;;;;;;16.38;2.75;;;4.90;99.90;;;;;;5055904;28;20124;-58
2023/01/19 10:32:35;;;;;;;14.77;1.92;;;5.00;99.90;;;;;;5053056;28;20045;-57
2023/01/19 10:35:04;;;;;;;19.05;2.72;;;5.10;99.90;;;;;;5052018;28;20448;-59
2023/01/19 10:37:33;;;;;;;18.00;2.47;;;5.10;99.90;;;;;;5053258;28;20057;-59
2023/01/19 10:40:02;;;;;;;18.60;2.53;;;5.30;99.90;;;;;;5063206;28;20110;-59
2023/01/19 10:42:29;;;;;;;17.58;2.45;;;5.30;99.90;;;;;;5067763;28;20464;-60
2023/01/19 10:44:59;;;;;;;16.25;1.90;;;5.30;99.90;;;;;;5068740;28;20103;-58
2023/01/19 10:47:30;;;;;;;20.02;2.63;;;5.30;99.90;;;;;;5079435;28;20140;-49
2023/01/19 10:49:57;;;;;;;22.17;2.17;;;5.40;99.90;;;;;;5071486;28;20467;-56
2023/01/19 10:52:28;;;;;;;16.98;2.60;;;5.50;99.90;;;;;;5051989;28;20154;-58
2023/01/19 10:54:58;;;;;;;13.40;2.20;;;5.50;99.90;;;;;;5065074;28;20131;-59
2023/01/19 10:57:28;;;;;;;16.13;2.35;;;5.50;99.90;;;;;;5061899;28;20056;-58
2023/01/19 10:59:54;;;;;;;11.63;1.88;;;5.60;99.90;;;;;;5071612;28;20083;-55
2023/01/19 11:02:25;;;;;;;11.93;2.25;;;5.70;99.90;;;;;;5071410;28;20056;-57
2023/01/19 11:04:52;;;;;;;25.15;2.45;;;5.70;99.90;;;;;;5071873;28;20060;-58
2023/01/19 11:07:20;;;;;;;18.20;2.22;;;5.80;99.90;;;;;;5071221;28;20408;-54
2023/01/19 11:09:47;;;;;;;24.70;2.63;;;5.70;99.90;;;;;;5070989;28;20481;-57
2023/01/19 11:12:22;;;;;;;22.17;2.63;;;5.80;99.90;;;;;;5052532;28;20095;-59
2023/01/19 11:14:50;;;;;;;14.00;1.83;;;5.80;99.90;;;;;;5051164;28;20085;-59
2023/01/19 11:17:22;;;;;;;16.98;1.60;;;5.80;99.90;;;;;;5052752;28;20083;-56
2023/01/19 11:19:53;;;;;;;15.67;2.63;;;5.80;99.90;;;;;;5051760;28;20546;-56
2023/01/19 11:22:21;;;;;;;16.08;2.47;;;5.90;99.90;;;;;;5051990;28;20091;-58
2023/01/19 11:24:48;;;;;;;15.57;2.15;;;5.90;99.90;;;;;;5067269;28;20091;-57
2023/01/19 11:27:16;;;;;;;15.93;1.73;;;6.00;99.90;;;;;;5072034;28;20045;-57
2023/01/19 11:29:48;;;;;;;13.07;2.03;;;6.00;99.90;;;;;;5071701;28;20076;-54
2023/01/19 11:32:21;;;;;;;11.00;1.67;;;6.10;99.90;;;;;;5070553;28;20450;-54
2023/01/19 11:34:47;;;;;;;11.60;1.85;;;6.00;99.90;;;;;;5070494;28;20084;-57
2023/01/19 11:37:33;;;;;;;14.20;1.92;;;6.10;99.90;;;;;;5062745;28;20087;-58
2023/01/19 11:40:01;;;;;;;15.70;1.90;;;6.10;99.90;;;;;;5056069;28;20044;-56
2023/01/19 11:42:30;;;;;;;16.42;2.25;;;6.10;99.90;;;;;;5080931;28;20511;-58
2023/01/19 11:45:05;;;;;;;13.13;1.60;;;6.20;99.90;;;;;;5070296;28;20135;-58
2023/01/19 11:47:35;;;;;;;11.80;1.48;;;6.20;99.90;;;;;;5071329;28;20080;-59
2023/01/19 11:50:04;;;;;;;17.13;1.58;;;6.30;99.90;;;;;;5067014;28;20552;-58
2023/01/19 11:52:33;;;;;;;11.90;1.50;;;6.30;99.90;;;;;;5056314;28;20140;-55
2023/01/19 11:55:01;;;;;;;18.10;1.77;;;6.30;99.90;;;;;;5071076;28;20114;-59
2023/01/19 11:57:28;;;;;;;13.90;1.90;;;6.40;99.90;;;;;;5072553;28;20048;-59
2023/01/19 12:00:22;;;;;;;9.35;2.10;;;6.40;99.90;;;;;;5065167;28;20056;-58
2023/01/19 12:02:49;;;;;;;9.07;1.40;;;6.40;99.90;;;;;;5052001;28;20045;-58
2023/01/19 12:05:16;;;;;;;9.50;1.40;;;6.50;99.90;;;;;;5069065;28;20056;-58
2023/01/19 12:07:43;;;;;;;12.13;1.80;;;6.50;99.90;;;;;;5067405;28;20084;-59
2023/01/19 12:10:17;;;;;;;16.13;1.88;;;6.50;99.90;;;;;;5051441;28;20088;-58
2023/01/19 12:12:44;;;;;;;15.27;1.52;;;6.50;99.90;;;;;;5054786;28;20312;-58
2023/01/19 12:15:20;;;;;;;9.18;1.13;;;6.40;99.90;;;;;;5066415;28;20056;-59
2023/01/19 12:17:48;;;;;;;8.23;1.48;;;6.30;99.90;;;;;;5071564;28;20216;-58
2023/01/19 12:20:21;;;;;;;9.70;1.70;;;6.10;99.90;;;;;;5074176;28;20053;-58
2023/01/19 12:22:50;;;;;;;11.93;1.50;;;6.00;99.90;;;;;;5072810;28;20564;-58
2023/01/19 12:25:20;;;;;;;14.30;1.33;;;5.90;99.90;;;;;;5075046;28;20084;-58
2023/01/19 12:27:47;;;;;;;15.45;1.60;;;5.90;99.90;;;;;;5074737;28;20467;-58
2023/01/19 12:30:19;;;;;;;7.72;1.13;;;5.80;99.90;;;;;;5075545;28;20094;-59
2023/01/19 12:32:45;;;;;;;;;;;5.80;99.90;;;;;;5072280;28;20048;-58
2023/01/19 12:35:55;;;;;;;11.15;1.90;;;5.70;99.90;;;;;;5073900;28;19979;-58
2023/01/19 12:38:44;;;;;;;14.95;1.48;;;5.70;99.90;;;;;;5063925;28;20057;-58
2023/01/19 12:41:22;;;;;;;6.45;1.52;;;5.80;99.90;;;;;;5054375;28;20120;-59
2023/01/19 12:43:49;;;;;;;13.27;1.50;;;5.90;99.90;;;;;;5055313;28;20132;-59
2023/01/19 12:46:24;;;;;;;12.23;1.73;;;5.90;99.90;;;;;;5086823;28;20378;-59
2023/01/19 12:48:50;;;;;;;12.35;1.90;;;5.90;99.90;;;;;;5075087;28;20052;-58
2023/01/19 12:51:26;;;;;;;14.13;1.85;;;5.90;99.90;;;;;;5074390;28;20064;-46
2023/01/19 12:53:53;;;;;;;8.90;1.52;;;5.80;99.90;;;;;;5073319;28;20082;-57
2023/01/19 12:56:20;;;;;;;12.35;1.35;;;5.70;99.90;;;;;;5074558;28;20068;-56
2023/01/19 12:58:48;;;;;;;10.60;1.75;;;5.80;99.90;;;;;;5064149;28;20102;-58
2023/01/19 13:01:17;;;;;;;15.15;1.67;;;5.80;99.90;;;;;;5060801;28;20048;-49
2023/01/19 13:04:00;;;;;;;12.85;1.58;;;5.90;99.90;;;;;;5062595;28;20256;-58
2023/01/19 13:07:09;;;;;;;12.93;1.30;;;6.00;99.90;;;;;;5066654;28;20134;-58